createdAt,value
2022-11-06T00:01:26.023Z,11.00
2022-11-06T00:03:53.616Z,11.00
2022-11-06T00:06:39.255Z,10.90
2022-11-06T00:09:12.357Z,10.90
2022-11-06T00:11:40.809Z,10.90
2022-11-06T00:14:07.938Z,10.80
2022-11-06T00:16:36.802Z,10.80
2022-11-06T00:19:04.269Z,10.70
2022-11-06T00:21:31.705Z,10.70
2022-11-06T00:24:00.918Z,10.70
2022-11-06T00:26:29.834Z,10.60
2022-11-06T00:28:57.411Z,10.60
2022-11-06T00:31:29.215Z,10.50
2022-11-06T00:33:58.006Z,10.40
2022-11-06T00:36:26.351Z,10.40
2022-11-06T00:38:57.206Z,10.40
2022-11-06T00:41:25.098Z,10.30
2022-11-06T00:43:54.228Z,10.30
2022-11-06T00:46:21.433Z,10.30
2022-11-06T00:48:48.401Z,10.30
2022-11-06T00:51:21.262Z,10.20
2022-11-06T00:53:48.518Z,10.20
2022-11-06T00:56:19.769Z,10.20
2022-11-06T00:58:47.533Z,10.10
2022-11-06T01:01:20.392Z,10.10
2022-11-06T01:03:51.678Z,10.10
2022-11-06T01:06:20.965Z,10.10
2022-11-06T01:08:48.499Z,10.10
2022-11-06T01:11:22.775Z,10.10
2022-11-06T01:13:51.733Z,10.10
2022-11-06T01:16:19.576Z,10.10
2022-11-06T01:18:46.920Z,10.10
2022-11-06T01:21:26.116Z,10.10
2022-11-06T01:23:55.850Z,10.10
2022-11-06T01:26:37.183Z,10.10
2022-11-06T01:29:06.450Z,10.10
2022-11-06T01:31:34.427Z,10.20
2022-11-06T01:34:02.240Z,10.20
2022-11-06T01:36:30.235Z,10.20
2022-11-06T01:38:59.694Z,10.10
2022-11-06T01:41:37.233Z,10.10
2022-11-06T01:44:35.792Z,10.10
2022-11-06T01:47:05.422Z,10.10
2022-11-06T01:49:36.394Z,10.00
2022-11-06T01:52:08.530Z,10.00
2022-11-06T01:54:38.339Z,10.00
2022-11-06T01:57:09.636Z,10.00
2022-11-06T01:59:44.333Z,10.00
2022-11-06T02:02:12.072Z,9.90
2022-11-06T02:04:42.863Z,9.90
2022-11-06T02:07:10.559Z,9.90
2022-11-06T02:09:37.522Z,9.90
2022-11-06T02:12:13.633Z,9.90
2022-11-06T02:14:43.379Z,9.90
2022-11-06T02:17:22.466Z,9.90
2022-11-06T02:20:15.274Z,9.90
2022-11-06T02:23:00.659Z,9.90
2022-11-06T02:26:01.790Z,9.80
2022-11-06T02:28:39.273Z,9.80
2022-11-06T02:31:13.599Z,9.80
2022-11-06T02:33:49.110Z,9.80
2022-11-06T02:36:21.642Z,9.80
2022-11-06T02:38:55.225Z,9.80
2022-11-06T02:41:31.993Z,9.80
2022-11-06T02:43:59.545Z,9.80
2022-11-06T02:46:33.509Z,9.80
2022-11-06T02:49:08.273Z,9.80
2022-11-06T02:51:41.030Z,9.80
2022-11-06T02:54:10.695Z,9.80
2022-11-06T02:56:42.733Z,9.80
2022-11-06T02:59:18.826Z,9.90
2022-11-06T03:01:52.551Z,9.90
2022-11-06T03:04:32.110Z,9.90
2022-11-06T03:07:08.520Z,9.90
2022-11-06T03:09:35.668Z,9.90
2022-11-06T03:12:44.474Z,9.90
2022-11-06T03:15:20.362Z,9.90
2022-11-06T03:18:00.107Z,9.90
2022-11-06T03:20:45.494Z,9.90
2022-11-06T03:23:13.430Z,10.00
2022-11-06T03:25:51.030Z,9.90
2022-11-06T03:28:33.012Z,9.90
2022-11-06T03:31:04.969Z,10.00
2022-11-06T03:33:40.832Z,10.00
2022-11-06T03:36:29.674Z,10.00
2022-11-06T03:39:01.456Z,10.00
2022-11-06T03:41:52.863Z,9.90
2022-11-06T03:44:23.086Z,10.00
2022-11-06T03:46:58.220Z,9.90
2022-11-06T03:49:31.570Z,10.00
2022-11-06T03:52:07.068Z,10.00
2022-11-06T03:54:43.303Z,9.90
2022-11-06T03:57:15.846Z,9.90
2022-11-06T03:59:51.320Z,10.00
2022-11-06T04:02:20.908Z,10.00
2022-11-06T04:04:51.065Z,10.00
2022-11-06T04:07:22.770Z,10.00
2022-11-06T04:10:14.498Z,10.00
2022-11-06T04:13:01.278Z,10.00
2022-11-06T04:15:33.399Z,10.00
2022-11-06T04:18:00.318Z,10.00
2022-11-06T04:20:55.938Z,10.00
2022-11-06T04:23:38.367Z,10.00
2022-11-06T04:26:39.255Z,10.00
2022-11-06T04:29:31.634Z,10.00
2022-11-06T04:32:19.625Z,10.00
2022-11-06T04:35:02.684Z,10.00
2022-11-06T04:37:41.002Z,10.00
2022-11-06T04:40:16.055Z,10.00
2022-11-06T04:42:51.924Z,10.00
2022-11-06T04:45:28.457Z,10.00
2022-11-06T04:47:56.225Z,10.00
2022-11-06T04:50:24.723Z,10.00
2022-11-06T04:52:53.085Z,10.00
2022-11-06T04:55:22.072Z,10.00
2022-11-06T04:57:49.047Z,10.00
2022-11-06T05:00:17.292Z,10.00
2022-11-06T05:02:44.167Z,10.00
2022-11-06T05:05:11.445Z,10.10
2022-11-06T05:07:38.325Z,10.00
2022-11-06T05:10:05.726Z,10.10
2022-11-06T05:12:32.630Z,10.10
2022-11-06T05:14:59.759Z,10.10
2022-11-06T05:17:26.697Z,10.10
2022-11-06T05:19:53.609Z,10.10
2022-11-06T05:22:38.800Z,10.10
2022-11-06T05:25:05.891Z,10.10
2022-11-06T05:27:32.809Z,10.10
2022-11-06T05:29:59.896Z,10.10
2022-11-06T05:32:31.279Z,10.10
2022-11-06T05:34:58.350Z,10.10
2022-11-06T05:37:25.223Z,10.10
2022-11-06T05:39:52.164Z,10.10
2022-11-06T05:42:19.097Z,10.10
2022-11-06T05:44:45.983Z,10.10
2022-11-06T05:47:12.908Z,10.10
2022-11-06T05:49:39.862Z,10.10
2022-11-06T05:52:06.819Z,10.10
2022-11-06T05:54:33.716Z,10.10
2022-11-06T05:57:00.578Z,10.10
2022-11-06T05:59:27.561Z,10.10
2022-11-06T06:01:54.935Z,10.10
2022-11-06T06:04:21.844Z,10.10
2022-11-06T06:06:48.769Z,10.10
2022-11-06T06:09:15.638Z,10.10
2022-11-06T06:11:42.532Z,10.10
2022-11-06T06:14:09.375Z,10.10
2022-11-06T06:16:36.465Z,10.10
2022-11-06T06:19:05.256Z,10.10
2022-11-06T06:21:32.192Z,10.10
2022-11-06T06:23:59.058Z,10.10
2022-11-06T06:26:25.971Z,10.10
2022-11-06T06:28:52.820Z,10.10
2022-11-06T06:31:19.788Z,10.00
2022-11-06T06:33:46.678Z,10.00
2022-11-06T06:36:13.658Z,10.00
2022-11-06T06:38:40.562Z,10.00
2022-11-06T06:41:08.776Z,10.00
2022-11-06T06:43:36.230Z,10.00
2022-11-06T06:46:06.006Z,10.00
2022-11-06T06:48:33.554Z,10.00
2022-11-06T06:51:01.435Z,10.00
2022-11-06T06:53:28.729Z,10.00
2022-11-06T06:56:00.491Z,10.00
2022-11-06T06:58:28.390Z,10.10
2022-11-06T07:00:55.786Z,10.10
2022-11-06T07:03:22.719Z,10.10
2022-11-06T07:05:49.915Z,10.10
2022-11-06T07:08:17.077Z,10.10
2022-11-06T07:10:44.086Z,10.10
2022-11-06T07:13:12.019Z,10.20
2022-11-06T07:15:39.128Z,10.20
2022-11-06T07:18:07.132Z,10.20
2022-11-06T07:20:35.037Z,10.20
2022-11-06T07:23:08.152Z,10.30
2022-11-06T07:25:35.939Z,10.30
2022-11-06T07:28:04.513Z,10.30
2022-11-06T07:30:32.060Z,10.30
2022-11-06T07:33:05.822Z,10.40
2022-11-06T07:35:35.422Z,10.40
2022-11-06T07:38:07.035Z,10.50
2022-11-06T07:40:34.900Z,10.50
2022-11-06T07:43:06.555Z,10.60
2022-11-06T07:45:33.960Z,10.60
2022-11-06T07:48:01.367Z,10.70
2022-11-06T07:50:28.406Z,10.70
2022-11-06T07:52:55.523Z,10.60
2022-11-06T07:55:22.473Z,10.60
2022-11-06T07:57:49.407Z,10.50
2022-11-06T08:00:16.794Z,10.60
2022-11-06T08:02:43.817Z,10.50
2022-11-06T08:05:10.922Z,10.40
2022-11-06T08:07:37.912Z,10.40
2022-11-06T08:10:05.403Z,10.40
2022-11-06T08:12:32.295Z,10.40
2022-11-06T08:14:59.232Z,10.40
2022-11-06T08:17:27.662Z,10.40
2022-11-06T08:19:54.499Z,10.50
2022-11-06T08:22:21.382Z,10.40
2022-11-06T08:24:48.328Z,10.40
2022-11-06T08:27:15.239Z,10.40
2022-11-06T08:29:42.191Z,10.40
2022-11-06T08:32:09.353Z,10.40
2022-11-06T08:34:36.732Z,10.50
2022-11-06T08:37:03.689Z,10.40
2022-11-06T08:39:30.707Z,10.50
2022-11-06T08:41:57.672Z,10.50
2022-11-06T08:44:24.937Z,10.50
2022-11-06T08:46:52.372Z,10.60
2022-11-06T08:49:19.681Z,10.70
2022-11-06T08:51:46.680Z,10.70
2022-11-06T08:54:13.794Z,10.70
2022-11-06T08:56:40.832Z,10.80
2022-11-06T08:59:07.814Z,10.80
2022-11-06T09:01:34.846Z,10.80
2022-11-06T09:04:01.940Z,10.80
2022-11-06T09:06:28.832Z,10.90
2022-11-06T09:08:56.734Z,10.90
2022-11-06T09:11:23.767Z,10.90
2022-11-06T09:13:50.979Z,10.90
2022-11-06T09:16:17.839Z,11.10
2022-11-06T09:18:44.761Z,11.20
2022-11-06T09:21:11.706Z,11.40
2022-11-06T09:23:38.699Z,11.50
2022-11-06T09:26:05.624Z,11.60
2022-11-06T09:28:32.516Z,11.70
2022-11-06T09:30:59.461Z,11.70
2022-11-06T09:33:26.392Z,11.80
2022-11-06T09:35:53.272Z,11.80
2022-11-06T09:38:20.172Z,11.80
2022-11-06T09:40:53.282Z,11.70
2022-11-06T09:43:58.166Z,11.60
2022-11-06T09:46:33.072Z,11.60
2022-11-06T09:49:17.327Z,11.60
2022-11-06T09:51:47.941Z,11.60
2022-11-06T09:54:26.228Z,11.60
2022-11-06T09:57:00.415Z,11.70
2022-11-06T09:59:27.696Z,11.80
2022-11-06T10:01:57.976Z,11.70
2022-11-06T10:04:58.101Z,11.80
2022-11-06T10:07:44.163Z,11.80
2022-11-06T10:10:23.971Z,11.80
2022-11-06T10:13:00.119Z,11.80
2022-11-06T10:15:34.828Z,11.80
2022-11-06T10:18:20.693Z,11.80
2022-11-06T10:20:58.522Z,11.90
2022-11-06T10:23:43.114Z,11.90
2022-11-06T10:26:12.393Z,12.00
2022-11-06T10:28:55.286Z,12.00
2022-11-06T10:31:38.880Z,12.00
2022-11-06T10:34:17.031Z,12.10
2022-11-06T10:37:30.642Z,12.10
2022-11-06T10:39:58.923Z,12.10
2022-11-06T10:42:38.061Z,12.10
2022-11-06T10:45:17.048Z,12.10
2022-11-06T10:47:51.744Z,12.10
2022-11-06T10:50:18.787Z,12.10
2022-11-06T10:53:17.900Z,12.20
2022-11-06T10:55:47.932Z,12.20
2022-11-06T10:58:22.528Z,12.20
2022-11-06T11:00:51.862Z,12.20
2022-11-06T11:03:26.842Z,12.20
2022-11-06T11:05:55.693Z,12.30
2022-11-06T11:08:34.695Z,12.30
2022-11-06T11:11:13.894Z,12.30
2022-11-06T11:13:46.753Z,12.40
2022-11-06T11:16:18.425Z,12.40
2022-11-06T11:18:46.583Z,12.40
2022-11-06T11:21:25.992Z,12.40
2022-11-06T11:24:11.869Z,12.40
2022-11-06T11:26:46.846Z,12.30
2022-11-06T11:29:33.120Z,12.20
2022-11-06T11:32:06.216Z,12.10
2022-11-06T11:34:37.708Z,12.00
2022-11-06T11:37:08.423Z,11.90
2022-11-06T11:39:43.768Z,11.80
2022-11-06T11:42:28.454Z,11.80
2022-11-06T11:45:10.686Z,11.80
2022-11-06T11:47:42.712Z,11.90
2022-11-06T11:50:30.233Z,11.90
2022-11-06T11:53:08.694Z,11.90
2022-11-06T11:55:41.156Z,11.90
2022-11-06T11:58:23.642Z,12.00
2022-11-06T12:00:57.477Z,12.00
2022-11-06T12:03:28.995Z,12.00
2022-11-06T12:06:09.249Z,12.10
2022-11-06T12:08:39.578Z,12.10
2022-11-06T12:11:07.438Z,12.10
2022-11-06T12:13:34.453Z,12.00
2022-11-06T12:16:04.753Z,12.00
2022-11-06T12:18:42.603Z,11.90
2022-11-06T12:21:20.281Z,11.90
2022-11-06T12:24:02.026Z,11.90
2022-11-06T12:26:49.857Z,11.90
2022-11-06T12:29:19.385Z,12.00
2022-11-06T12:32:07.631Z,12.10
2022-11-06T12:34:44.017Z,12.20
2022-11-06T12:37:55.438Z,12.40
2022-11-06T12:40:31.765Z,12.70
2022-11-06T12:43:16.663Z,13.00
2022-11-06T12:46:02.344Z,13.10
2022-11-06T12:48:37.700Z,13.10
2022-11-06T12:51:21.191Z,13.10
2022-11-06T12:54:06.772Z,13.00
2022-11-06T12:56:58.176Z,13.00
2022-11-06T12:59:31.336Z,13.00
2022-11-06T13:02:26.950Z,13.00
2022-11-06T13:05:15.701Z,12.90
2022-11-06T13:08:01.047Z,12.90
2022-11-06T13:11:12.617Z,12.90
2022-11-06T13:13:58.333Z,12.90
2022-11-06T13:16:52.739Z,12.80
2022-11-06T13:19:39.496Z,12.80
2022-11-06T13:22:29.629Z,12.80
2022-11-06T13:25:07.208Z,12.80
2022-11-06T13:27:44.933Z,12.80
2022-11-06T13:30:22.878Z,12.80
2022-11-06T13:33:05.184Z,12.80
2022-11-06T13:35:34.518Z,12.70
2022-11-06T13:38:05.947Z,12.70
2022-11-06T13:40:38.014Z,12.70
2022-11-06T13:43:11.038Z,12.70
2022-11-06T13:45:51.300Z,12.70
2022-11-06T13:48:54.295Z,12.70
2022-11-06T13:51:42.549Z,12.70
2022-11-06T13:54:23.570Z,12.70
2022-11-06T13:57:21.838Z,12.60
2022-11-06T14:00:04.146Z,12.60
2022-11-06T14:02:48.982Z,12.60
2022-11-06T14:05:21.512Z,12.60
2022-11-06T14:07:50.534Z,12.60
2022-11-06T14:10:27.072Z,12.60
2022-11-06T14:12:54.339Z,12.60
2022-11-06T14:15:21.131Z,12.60
2022-11-06T14:17:59.536Z,12.60
2022-11-06T14:20:32.684Z,12.60
2022-11-06T14:23:45.754Z,12.60
2022-11-06T14:26:20.268Z,12.60
2022-11-06T14:28:47.319Z,12.60
2022-11-06T14:31:52.846Z,12.60
2022-11-06T14:34:28.933Z,12.50
2022-11-06T14:36:55.954Z,12.50
2022-11-06T14:40:01.609Z,12.50
2022-11-06T14:42:37.706Z,12.50
2022-11-06T14:45:12.090Z,12.40
2022-11-06T14:47:46.533Z,12.40
2022-11-06T14:50:19.533Z,12.30
2022-11-06T14:52:51.342Z,12.20
2022-11-06T14:55:27.357Z,12.20
2022-11-06T14:57:55.716Z,12.10
2022-11-06T15:00:36.590Z,12.00
2022-11-06T15:03:16.087Z,12.00
2022-11-06T15:05:43.440Z,11.90
2022-11-06T15:08:11.619Z,11.90
2022-11-06T15:10:44.849Z,11.90
2022-11-06T15:13:16.304Z,11.80
2022-11-06T15:15:46.419Z,11.80
2022-11-06T15:18:24.897Z,11.80
2022-11-06T15:21:04.750Z,11.80
2022-11-06T15:23:58.269Z,11.80
2022-11-06T15:26:36.459Z,11.70
2022-11-06T15:29:15.707Z,11.70
2022-11-06T15:31:49.133Z,11.70
2022-11-06T15:34:38.161Z,11.60
2022-11-06T15:37:14.423Z,11.60
2022-11-06T15:39:54.651Z,11.50
2022-11-06T15:42:27.195Z,11.50
2022-11-06T15:45:15.739Z,11.40
2022-11-06T15:47:57.319Z,11.40
2022-11-06T15:50:37.529Z,11.30
2022-11-06T15:53:13.869Z,11.20
2022-11-06T15:56:05.265Z,11.20
2022-11-06T15:58:37.843Z,11.10
2022-11-06T16:01:06.539Z,11.10
2022-11-06T16:03:51.471Z,11.00
2022-11-06T16:06:19.206Z,11.00
2022-11-06T16:08:47.114Z,10.90
2022-11-06T16:11:17.834Z,10.90
2022-11-06T16:13:46.770Z,10.80
2022-11-06T16:16:33.879Z,10.80
2022-11-06T16:19:02.345Z,10.80
2022-11-06T16:21:32.707Z,10.80
2022-11-06T16:24:02.162Z,10.70
2022-11-06T16:26:35.679Z,10.70
2022-11-06T16:29:09.020Z,10.70
2022-11-06T16:31:36.657Z,10.60
2022-11-06T16:34:06.911Z,10.60
2022-11-06T16:36:57.823Z,10.60
2022-11-06T16:39:47.635Z,10.50
2022-11-06T16:42:35.196Z,10.50
2022-11-06T16:45:03.335Z,10.50
2022-11-06T16:47:30.492Z,10.40
2022-11-06T16:49:58.686Z,10.40
2022-11-06T16:52:33.280Z,10.30
2022-11-06T16:55:16.837Z,10.30
2022-11-06T16:57:54.823Z,10.30
2022-11-06T17:00:27.819Z,10.20
2022-11-06T17:02:59.432Z,10.20
2022-11-06T17:05:36.765Z,10.10
2022-11-06T17:08:21.941Z,10.10
2022-11-06T17:10:53.438Z,9.90
2022-11-06T17:13:27.212Z,9.80
2022-11-06T17:16:03.653Z,9.70
2022-11-06T17:18:36.719Z,9.50
2022-11-06T17:21:18.219Z,9.30
2022-11-06T17:23:46.504Z,9.20
2022-11-06T17:26:27.866Z,9.10
2022-11-06T17:28:56.437Z,9.00
2022-11-06T17:31:24.085Z,8.90
2022-11-06T17:33:51.809Z,8.80
2022-11-06T17:36:30.648Z,8.80
2022-11-06T17:38:59.069Z,8.70
2022-11-06T17:41:30.005Z,8.70
2022-11-06T17:44:08.777Z,8.60
2022-11-06T17:46:38.095Z,8.50
2022-11-06T17:49:05.358Z,8.50
2022-11-06T17:51:52.837Z,8.40
2022-11-06T17:54:22.046Z,8.40
2022-11-06T17:56:51.309Z,8.30
2022-11-06T17:59:18.705Z,8.30
2022-11-06T18:01:47.850Z,8.30
2022-11-06T18:04:15.006Z,8.30
2022-11-06T18:06:45.698Z,8.30
2022-11-06T18:09:14.580Z,8.30
2022-11-06T18:11:42.615Z,8.30
2022-11-06T18:14:10.175Z,8.30
2022-11-06T18:16:43.725Z,8.30
2022-11-06T18:19:12.543Z,8.30
2022-11-06T18:21:39.448Z,8.30
2022-11-06T18:24:06.688Z,8.30
2022-11-06T18:26:33.967Z,8.30
2022-11-06T18:29:00.787Z,8.30
2022-11-06T18:31:27.845Z,8.30
2022-11-06T18:33:54.887Z,8.30
2022-11-06T18:36:21.852Z,8.30
2022-11-06T18:38:48.805Z,8.40
2022-11-06T18:41:18.778Z,8.40
2022-11-06T18:43:46.288Z,8.40
2022-11-06T18:46:16.359Z,8.50
2022-11-06T18:48:43.566Z,8.50
2022-11-06T18:51:27.511Z,8.40
2022-11-06T18:54:04.504Z,8.40
2022-11-06T18:56:32.272Z,8.40
2022-11-06T18:58:59.673Z,8.40
2022-11-06T19:01:26.796Z,8.40
2022-11-06T19:03:53.870Z,8.40
2022-11-06T19:06:21.766Z,8.40
2022-11-06T19:08:49.283Z,8.40
2022-11-06T19:11:18.085Z,8.40
2022-11-06T19:13:48.276Z,8.40
2022-11-06T19:16:19.451Z,8.40
2022-11-06T19:21:29.852Z,8.40
2022-11-06T19:24:05.352Z,8.40
2022-11-06T19:26:35.231Z,8.40
2022-11-06T19:29:02.907Z,8.40
2022-11-06T19:31:30.659Z,8.40
2022-11-06T19:33:59.379Z,8.40
2022-11-06T19:36:26.585Z,8.40
2022-11-06T19:38:54.055Z,8.40
2022-11-06T19:41:21.052Z,8.40
2022-11-06T19:43:48.027Z,8.40
2022-11-06T19:46:23.470Z,8.40
2022-11-06T19:48:52.870Z,8.40
2022-11-06T19:51:20.302Z,8.40
2022-11-06T19:53:47.159Z,8.50
2022-11-06T19:56:16.645Z,8.50
2022-11-06T19:58:43.983Z,8.50
2022-11-06T20:01:15.608Z,8.50
2022-11-06T20:03:45.542Z,8.50
2022-11-06T20:06:13.437Z,8.50
2022-11-06T20:08:40.678Z,8.50
2022-11-06T20:11:12.880Z,8.50
2022-11-06T20:13:44.613Z,8.50
2022-11-06T20:16:15.907Z,8.50
2022-11-06T20:18:44.014Z,8.50
2022-11-06T20:21:11.992Z,8.50
2022-11-06T20:23:39.257Z,8.50
2022-11-06T20:26:06.882Z,8.60
2022-11-06T20:28:33.953Z,8.50
2022-11-06T20:31:08.558Z,8.50
2022-11-06T20:33:36.402Z,8.50
2022-11-06T20:36:20.505Z,8.50
2022-11-06T20:38:47.463Z,8.60
2022-11-06T20:41:15.054Z,8.60
2022-11-06T20:43:42.725Z,8.60
2022-11-06T20:46:10.709Z,8.60
2022-11-06T20:48:37.997Z,8.60
2022-11-06T20:51:08.568Z,8.70
2022-11-06T20:53:36.088Z,8.70
2022-11-06T20:56:08.565Z,8.70
2022-11-06T20:58:36.005Z,8.70
2022-11-06T21:01:10.859Z,8.70
2022-11-06T21:03:42.333Z,8.80
2022-11-06T21:06:12.475Z,8.80
2022-11-06T21:08:41.374Z,8.80
2022-11-06T21:11:12.026Z,8.80
2022-11-06T21:13:42.509Z,8.90
2022-11-06T21:16:24.376Z,8.90
2022-11-06T21:18:51.766Z,8.90
2022-11-06T21:21:21.890Z,8.90
2022-11-06T21:23:49.434Z,8.90
2022-11-06T21:26:22.371Z,9.00
2022-11-06T21:28:49.276Z,9.00
2022-11-06T21:31:22.152Z,9.00
2022-11-06T21:33:50.954Z,9.00
2022-11-06T21:36:20.817Z,9.10
2022-11-06T21:38:48.412Z,9.10
2022-11-06T21:41:18.443Z,9.10
2022-11-06T21:43:45.676Z,9.20
2022-11-06T21:46:13.170Z,9.20
2022-11-06T21:48:46.275Z,9.20
2022-11-06T21:51:16.681Z,9.20
2022-11-06T21:54:02.555Z,9.20
2022-11-06T21:56:29.701Z,9.30
2022-11-06T21:58:59.037Z,9.30
2022-11-06T22:01:26.678Z,9.40
2022-11-06T22:03:54.241Z,9.40
2022-11-06T22:06:24.691Z,9.40
2022-11-06T22:08:53.607Z,9.50
2022-11-06T22:11:32.599Z,9.50
2022-11-06T22:14:01.766Z,9.50
2022-11-06T22:16:36.861Z,9.60
2022-11-06T22:19:06.967Z,9.70
2022-11-06T22:21:35.705Z,9.70
2022-11-06T22:24:02.748Z,9.70
2022-11-06T22:26:32.298Z,9.70
2022-11-06T22:29:03.742Z,9.80
2022-11-06T22:31:30.985Z,9.80
2022-11-06T22:33:58.340Z,9.80
2022-11-06T22:36:25.796Z,9.80
2022-11-06T22:38:53.610Z,9.90
2022-11-06T22:41:23.653Z,10.00
2022-11-06T22:43:51.234Z,10.00
2022-11-06T22:46:21.189Z,10.00
2022-11-06T22:48:48.857Z,10.00
2022-11-06T22:51:19.144Z,10.10
2022-11-06T22:53:46.084Z,10.10
2022-11-06T22:56:13.275Z,10.20
2022-11-06T22:58:41.118Z,10.20
2022-11-06T23:01:09.279Z,10.30
2022-11-06T23:03:36.348Z,10.40
2022-11-06T23:06:08.849Z,10.40
2022-11-06T23:08:39.021Z,10.40
2022-11-06T23:11:12.233Z,10.40
2022-11-06T23:13:40.090Z,10.50
2022-11-06T23:16:10.266Z,10.50
2022-11-06T23:18:37.930Z,10.50
2022-11-06T23:21:22.906Z,10.60
2022-11-06T23:23:49.840Z,10.60
2022-11-06T23:26:18.576Z,10.60
2022-11-06T23:28:46.450Z,10.60
2022-11-06T23:31:15.642Z,10.60
2022-11-06T23:33:43.430Z,10.60
2022-11-06T23:36:12.976Z,10.70
2022-11-06T23:38:40.573Z,10.70
2022-11-06T23:41:33.960Z,10.60
2022-11-06T23:44:02.061Z,10.60
2022-11-06T23:46:31.827Z,10.70
2022-11-06T23:49:02.344Z,10.70
2022-11-06T23:51:29.311Z,10.70
2022-11-06T23:53:56.700Z,10.70
2022-11-06T23:56:23.623Z,10.80
2022-11-06T23:58:50.520Z,10.80
